Pontiac, Michigan
Current Conditions -  °F | °C
As of 6:01 PM on Saturday 22 Nov 2014 (Local Time) from KPTK Reporting Station
Haze Haze  
Wind Chill: 36°   Ceiling: 500
Heat Index: 42°   Visibility: 2mi
Dew Point: 40°   Wind: 12mph
Humidity: 92%   Direction: 210°SSW
Pressure: 29.93"   Gusts: NA
Location:  42.64°N, 83.29°W
Report Text: KPTK 222301Z 21010KT 2SM BR OVC005 06/04 A2993 RMK AO2 T00560044
Loading
Personal Weather Stations






























Interactive Weather Map New forecast layout! Learn more

10-Day Weather Forecast

Advertisements
Track Severe Weather on mobile